Terminal Aerodrome Forecast
Issued by NWS Jacksonville, FL

Home | Current Version | Previous Version | Text Only | Print | Product List | Glossary On
Versions: 1 2 3 4 5 6 7 8 9 10 11 12 13 14 15
000
FTUS42 KJAX 161500 AAC
TAFJAX
TAF AMD
KJAX 161556Z 1616/1712 28012KT 3SM -TSRA BKN020CB BKN150
     FM161630 27007KT P6SM VCTS SCT025CB BKN040
      TEMPO 1620/1624 2SM TSRA BKN025CB
     FM170200 25004KT P6SM VCSH SCT040 BKN100
     FM170600 29004KT P6SM SCT100 BKN200=

USA.gov is the U.S. government's official web portal to all federal, state and local government web resources and services.